sensor_id;sensor_type;location;lat;lon;timestamp;pressure;altitude;pressure_sealevel;temperature;humidity
37848;BME280;23688;33.130;-117.188;2022-12-24T00:01:15;99899.31;;;17.01;66.76
37848;BME280;23688;33.130;-117.188;2022-12-24T00:03:41;99905.53;;;17.05;64.11
37848;BME280;23688;33.130;-117.188;2022-12-24T00:06:15;99903.78;;;17.05;62.25
37848;BME280;23688;33.130;-117.188;2022-12-24T00:08:41;99901.34;;;17.15;61.79
37848;BME280;23688;33.130;-117.188;2022-12-24T00:11:08;99905.88;;;17.22;59.90
37848;BME280;23688;33.130;-117.188;2022-12-24T00:13:37;99913.75;;;17.23;59.82
37848;BME280;23688;33.130;-117.188;2022-12-24T00:16:04;99896.38;;;17.27;58.28
37848;BME280;23688;33.130;-117.188;2022-12-24T00:18:31;99891.94;;;17.26;57.75
37848;BME280;23688;33.130;-117.188;2022-12-24T00:20:57;99899.09;;;17.33;59.73
37848;BME280;23688;33.130;-117.188;2022-12-24T00:23:24;99902.59;;;17.33;60.78
37848;BME280;23688;33.130;-117.188;2022-12-24T00:25:50;99916.59;;;17.32;61.64
37848;BME280;23688;33.130;-117.188;2022-12-24T00:28:17;99913.03;;;17.29;61.90
37848;BME280;23688;33.130;-117.188;2022-12-24T00:30:43;99916.28;;;17.19;62.31
37848;BME280;23688;33.130;-117.188;2022-12-24T00:33:10;99928.16;;;17.00;61.70
37848;BME280;23688;33.130;-117.188;2022-12-24T00:35:37;99928.69;;;16.86;62.21
37848;BME280;23688;33.130;-117.188;2022-12-24T00:38:04;99934.88;;;16.88;62.03
37848;BME280;23688;33.130;-117.188;2022-12-24T00:40:31;99934.00;;;16.89;61.52
37848;BME280;23688;33.130;-117.188;2022-12-24T00:42:57;99932.03;;;16.79;61.19
37848;BME280;23688;33.130;-117.188;2022-12-24T00:45:24;99935.31;;;16.71;60.96
37848;BME280;23688;33.130;-117.188;2022-12-24T00:47:52;99940.34;;;16.63;60.69
37848;BME280;23688;33.130;-117.188;2022-12-24T00:50:19;99939.28;;;16.55;60.79
37848;BME280;23688;33.130;-117.188;2022-12-24T00:52:45;99946.19;;;16.51;60.44
37848;BME280;23688;33.130;-117.188;2022-12-24T00:55:11;99950.34;;;16.43;60.37
37848;BME280;23688;33.130;-117.188;2022-12-24T00:57:37;99943.75;;;16.24;59.77
37848;BME280;23688;33.130;-117.188;2022-12-24T01:00:05;99961.88;;;16.16;59.18
37848;BME280;23688;33.130;-117.188;2022-12-24T01:02:33;99956.19;;;15.98;57.93
37848;BME280;23688;33.130;-117.188;2022-12-24T01:05:01;99955.72;;;15.81;56.35
37848;BME280;23688;33.130;-117.188;2022-12-24T01:07:40;99942.72;;;15.54;55.48
37848;BME280;23688;33.130;-117.188;2022-12-24T01:10:07;99941.50;;;15.43;55.46
37848;BME280;23688;33.130;-117.188;2022-12-24T01:12:35;99956.19;;;15.37;56.17
37848;BME280;23688;33.130;-117.188;2022-12-24T01:15:01;99952.47;;;15.29;56.27
37848;BME280;23688;33.130;-117.188;2022-12-24T01:17:29;99941.72;;;15.20;56.99
37848;BME280;23688;33.130;-117.188;2022-12-24T01:19:56;99946.25;;;15.26;57.14
37848;BME280;23688;33.130;-117.188;2022-12-24T01:22:22;99954.00;;;15.23;57.39
37848;BME280;23688;33.130;-117.188;2022-12-24T01:24:48;99958.22;;;15.17;57.67
37848;BME280;23688;33.130;-117.188;2022-12-24T01:27:15;99958.94;;;15.12;57.80
37848;BME280;23688;33.130;-117.188;2022-12-24T01:29:41;99947.38;;;15.05;57.69
37848;BME280;23688;33.130;-117.188;2022-12-24T01:32:07;99946.38;;;15.02;57.88
37848;BME280;23688;33.130;-117.188;2022-12-24T01:34:34;99947.59;;;14.84;58.03
37848;BME280;23688;33.130;-117.188;2022-12-24T01:37:01;99949.44;;;14.60;57.74
37848;BME280;23688;33.130;-117.188;2022-12-24T01:39:27;99936.66;;;14.43;56.88
37848;BME280;23688;33.130;-117.188;2022-12-24T01:41:53;99957.84;;;14.51;57.78
37848;BME280;23688;33.130;-117.188;2022-12-24T01:44:52;99956.91;;;14.49;58.52
37848;BME280;23688;33.130;-117.188;2022-12-24T01:47:26;99963.59;;;14.41;57.98
37848;BME280;23688;33.130;-117.188;2022-12-24T01:49:57;99969.75;;;14.43;57.47
37848;BME280;23688;33.130;-117.188;2022-12-24T01:52:30;99979.22;;;14.39;57.79
37848;BME280;23688;33.130;-117.188;2022-12-24T01:55:04;99974.47;;;14.27;57.77
37848;BME280;23688;33.130;-117.188;2022-12-24T01:57:37;99978.66;;;14.22;58.66
37848;BME280;23688;33.130;-117.188;2022-12-24T02:00:09;99974.03;;;14.15;59.63
37848;BME280;23688;33.130;-117.188;2022-12-24T02:02:38;99974.59;;;14.06;60.29
37848;BME280;23688;33.130;-117.188;2022-12-24T02:05:14;99974.34;;;13.99;60.35
37848;BME280;23688;33.130;-117.188;2022-12-24T02:07:42;99982.75;;;13.90;60.59
37848;BME280;23688;33.130;-117.188;2022-12-24T02:10:11;99987.41;;;13.75;62.53
37848;BME280;23688;33.130;-117.188;2022-12-24T02:12:39;99997.50;;;13.41;71.20
37848;BME280;23688;33.130;-117.188;2022-12-24T02:15:07;99985.63;;;13.27;73.79
37848;BME280;23688;33.130;-117.188;2022-12-24T02:18:19;100006.41;;;13.25;74.13
37848;BME280;23688;33.130;-117.188;2022-12-24T02:35:10;100037.69;;;12.82;81.55
37848;BME280;23688;33.130;-117.188;2022-12-24T02:37:42;100042.56;;;12.53;83.73
37848;BME280;23688;33.130;-117.188;2022-12-24T02:40:27;100046.44;;;12.42;86.09
37848;BME280;23688;33.130;-117.188;2022-12-24T02:42:58;100054.19;;;12.40;86.72
37848;BME280;23688;33.130;-117.188;2022-12-24T02:45:29;100056.97;;;12.24;88.32
37848;BME280;23688;33.130;-117.188;2022-12-24T02:47:58;100024.78;;;12.22;90.08
37848;BME280;23688;33.130;-117.188;2022-12-24T02:50:25;100052.28;;;12.36;90.82
37848;BME280;23688;33.130;-117.188;2022-12-24T02:52:51;100049.69;;;12.36;91.27
37848;BME280;23688;33.130;-117.188;2022-12-24T02:56:34;100061.50;;;12.49;92.00
37848;BME280;23688;33.130;-117.188;2022-12-24T03:01:37;100069.28;;;12.28;92.23
37848;BME280;23688;33.130;-117.188;2022-12-24T03:09:39;100079.34;;;12.20;90.08
37848;BME280;23688;33.130;-117.188;2022-12-24T03:12:18;100081.28;;;12.05;90.42
37848;BME280;23688;33.130;-117.188;2022-12-24T03:14:47;100096.91;;;12.05;90.46
37848;BME280;23688;33.130;-117.188;2022-12-24T03:17:18;100080.47;;;12.06;91.03
37848;BME280;23688;33.130;-117.188;2022-12-24T03:19:46;100095.31;;;12.09;91.27
37848;BME280;23688;33.130;-117.188;2022-12-24T03:22:13;100101.47;;;12.11;91.65
37848;BME280;23688;33.130;-117.188;2022-12-24T03:24:40;100096.03;;;12.05;92.48
37848;BME280;23688;33.130;-117.188;2022-12-24T03:27:08;100099.09;;;11.96;93.10
37848;BME280;23688;33.130;-117.188;2022-12-24T03:29:35;100104.91;;;11.90;93.47
37848;BME280;23688;33.130;-117.188;2022-12-24T03:32:05;100106.22;;;11.82;94.26
37848;BME280;23688;33.130;-117.188;2022-12-24T03:34:31;100113.63;;;11.73;94.10
37848;BME280;23688;33.130;-117.188;2022-12-24T03:36:57;100088.69;;;11.59;94.39
37848;BME280;23688;33.130;-117.188;2022-12-24T03:39:24;100103.53;;;11.61;94.18
37848;BME280;23688;33.130;-117.188;2022-12-24T03:41:50;100102.56;;;11.59;93.94
37848;BME280;23688;33.130;-117.188;2022-12-24T03:44:17;100107.81;;;11.61;94.00
37848;BME280;23688;33.130;-117.188;2022-12-24T03:46:43;100112.22;;;11.62;94.02
37848;BME280;23688;33.130;-117.188;2022-12-24T03:49:09;100093.50;;;11.51;94.04
37848;BME280;23688;33.130;-117.188;2022-12-24T03:51:38;100102.47;;;11.57;94.04
37848;BME280;23688;33.130;-117.188;2022-12-24T03:54:04;100109.19;;;11.52;93.87
37848;BME280;23688;33.130;-117.188;2022-12-24T03:56:30;100113.56;;;11.35;93.66
37848;BME280;23688;33.130;-117.188;2022-12-24T03:58:56;100114.78;;;11.24;93.78
37848;BME280;23688;33.130;-117.188;2022-12-24T04:01:23;100123.25;;;11.20;94.04
37848;BME280;23688;33.130;-117.188;2022-12-24T04:03:49;100123.16;;;11.19;94.11
37848;BME280;23688;33.130;-117.188;2022-12-24T04:06:16;100124.94;;;11.20;94.04
37848;BME280;23688;33.130;-117.188;2022-12-24T04:08:42;100114.75;;;11.06;93.78
37848;BME280;23688;33.130;-117.188;2022-12-24T04:11:10;100116.47;;;11.06;93.35
37848;BME280;23688;33.130;-117.188;2022-12-24T04:13:37;100110.75;;;10.95;92.89
37848;BME280;23688;33.130;-117.188;2022-12-24T04:16:07;100125.59;;;10.98;92.91
37848;BME280;23688;33.130;-117.188;2022-12-24T04:18:34;100123.56;;;10.92;92.82
37848;BME280;23688;33.130;-117.188;2022-12-24T04:21:02;100122.91;;;10.96;91.95
37848;BME280;23688;33.130;-117.188;2022-12-24T04:23:33;100091.97;;;10.83;91.99
37848;BME280;23688;33.130;-117.188;2022-12-24T04:26:04;100117.25;;;10.87;92.15
37848;BME280;23688;33.130;-117.188;2022-12-24T04:28:32;100106.72;;;10.84;91.77
37848;BME280;23688;33.130;-117.188;2022-12-24T04:31:00;100111.78;;;10.81;91.27
37848;BME280;23688;33.130;-117.188;2022-12-24T04:33:27;100121.97;;;10.78;91.01
37848;BME280;23688;33.130;-117.188;2022-12-24T04:35:56;100117.00;;;10.64;91.15
37848;BME280;23688;33.130;-117.188;2022-12-24T04:38:22;100113.63;;;10.49;91.78
37848;BME280;23688;33.130;-117.188;2022-12-24T04:41:17;100114.00;;;10.57;91.70
37848;BME280;23688;33.130;-117.188;2022-12-24T04:43:46;100122.53;;;10.54;91.19
37848;BME280;23688;33.130;-117.188;2022-12-24T04:46:21;100133.41;;;10.47;90.79
37848;BME280;23688;33.130;-117.188;2022-12-24T04:48:50;100131.31;;;10.40;89.62
37848;BME280;23688;33.130;-117.188;2022-12-24T04:51:17;100131.91;;;10.34;88.84
37848;BME280;23688;33.130;-117.188;2022-12-24T04:53:43;100145.66;;;10.33;89.32
37848;BME280;23688;33.130;-117.188;2022-12-24T04:56:18;100132.91;;;10.21;89.35
37848;BME280;23688;33.130;-117.188;2022-12-24T04:58:45;100137.13;;;10.19;88.99
37848;BME280;23688;33.130;-117.188;2022-12-24T05:01:13;100137.84;;;10.17;89.83
37848;BME280;23688;33.130;-117.188;2022-12-24T05:03:39;100150.13;;;10.19;91.46
37848;BME280;23688;33.130;-117.188;2022-12-24T05:06:09;100149.44;;;10.07;91.02
37848;BME280;23688;33.130;-117.188;2022-12-24T05:08:36;100152.19;;;9.94;90.17
37848;BME280;23688;33.130;-117.188;2022-12-24T05:11:05;100157.94;;;9.88;90.34
37848;BME280;23688;33.130;-117.188;2022-12-24T05:13:31;100157.06;;;9.88;90.59
37848;BME280;23688;33.130;-117.188;2022-12-24T05:15:58;100146.44;;;9.83;90.65
37848;BME280;23688;33.130;-117.188;2022-12-24T05:18:24;100148.56;;;9.90;90.34
37848;BME280;23688;33.130;-117.188;2022-12-24T05:20:51;100150.22;;;9.90;90.11
37848;BME280;23688;33.130;-117.188;2022-12-24T05:23:22;100145.94;;;9.90;89.85
37848;BME280;23688;33.130;-117.188;2022-12-24T05:26:42;100142.63;;;9.93;90.84
37848;BME280;23688;33.130;-117.188;2022-12-24T05:29:10;100146.19;;;9.95;91.89
37848;BME280;23688;33.130;-117.188;2022-12-24T05:31:40;100132.16;;;9.91;92.34
37848;BME280;23688;33.130;-117.188;2022-12-24T05:34:07;100140.34;;;9.99;93.06
37848;BME280;23688;33.130;-117.188;2022-12-24T05:36:35;100133.78;;;9.89;92.64
37848;BME280;23688;33.130;-117.188;2022-12-24T05:39:01;100130.41;;;9.75;91.38
37848;BME280;23688;33.130;-117.188;2022-12-24T05:41:28;100133.84;;;9.74;89.94
37848;BME280;23688;33.130;-117.188;2022-12-24T05:43:55;100136.34;;;9.73;90.02
37848;BME280;23688;33.130;-117.188;2022-12-24T05:46:22;100131.88;;;9.70;90.48
37848;BME280;23688;33.130;-117.188;2022-12-24T05:48:51;100128.66;;;9.74;91.06
37848;BME280;23688;33.130;-117.188;2022-12-24T05:51:19;100130.34;;;9.74;91.04
37848;BME280;23688;33.130;-117.188;2022-12-24T05:53:48;100135.97;;;9.81;91.89
37848;BME280;23688;33.130;-117.188;2022-12-24T05:56:17;100136.84;;;9.82;92.08
37848;BME280;23688;33.130;-117.188;2022-12-24T05:58:43;100139.38;;;9.80;92.09
37848;BME280;23688;33.130;-117.188;2022-12-24T06:01:12;100136.44;;;9.74;91.56
37848;BME280;23688;33.130;-117.188;2022-12-24T06:03:39;100129.22;;;9.69;90.47
37848;BME280;23688;33.130;-117.188;2022-12-24T06:06:11;100126.69;;;9.70;90.64
37848;BME280;23688;33.130;-117.188;2022-12-24T06:08:38;100121.69;;;9.73;92.03
37848;BME280;23688;33.130;-117.188;2022-12-24T06:11:08;100122.00;;;9.79;93.30
37848;BME280;23688;33.130;-117.188;2022-12-24T06:13:35;100103.22;;;9.83;94.63
37848;BME280;23688;33.130;-117.188;2022-12-24T06:16:03;100113.69;;;10.01;95.98
37848;BME280;23688;33.130;-117.188;2022-12-24T06:18:31;100114.09;;;10.09;96.40
37848;BME280;23688;33.130;-117.188;2022-12-24T06:20:58;100106.50;;;10.12;96.51
37848;BME280;23688;33.130;-117.188;2022-12-24T06:23:27;100090.75;;;10.09;96.42
37848;BME280;23688;33.130;-117.188;2022-12-24T06:25:55;100106.00;;;10.19;95.32
37848;BME280;23688;33.130;-117.188;2022-12-24T06:28:22;100110.75;;;10.12;92.78
37848;BME280;23688;33.130;-117.188;2022-12-24T06:30:49;100116.63;;;10.07;91.84
37848;BME280;23688;33.130;-117.188;2022-12-24T06:33:18;100106.78;;;10.02;90.29
37848;BME280;23688;33.130;-117.188;2022-12-24T06:35:45;100112.72;;;9.99;88.57
37848;BME280;23688;33.130;-117.188;2022-12-24T06:38:13;100101.44;;;9.99;90.12
37848;BME280;23688;33.130;-117.188;2022-12-24T06:40:42;100107.72;;;10.02;92.07
37848;BME280;23688;33.130;-117.188;2022-12-24T06:43:08;100116.44;;;10.04;92.95
37848;BME280;23688;33.130;-117.188;2022-12-24T06:45:34;100096.25;;;9.99;92.25
37848;BME280;23688;33.130;-117.188;2022-12-24T06:48:01;100108.44;;;10.00;91.47
37848;BME280;23688;33.130;-117.188;2022-12-24T06:50:27;100117.84;;;9.98;91.20
37848;BME280;23688;33.130;-117.188;2022-12-24T06:52:54;100111.25;;;10.04;92.31
37848;BME280;23688;33.130;-117.188;2022-12-24T06:55:20;100121.06;;;10.10;92.68
37848;BME280;23688;33.130;-117.188;2022-12-24T06:57:46;100114.09;;;10.09;91.76
37848;BME280;23688;33.130;-117.188;2022-12-24T07:00:13;100111.25;;;10.04;90.47
37848;BME280;23688;33.130;-117.188;2022-12-24T07:02:43;100098.78;;;9.97;90.16
37848;BME280;23688;33.130;-117.188;2022-12-24T07:05:11;100095.50;;;9.85;89.78
37848;BME280;23688;33.130;-117.188;2022-12-24T07:07:39;100111.16;;;9.86;89.43
37848;BME280;23688;33.130;-117.188;2022-12-24T07:10:07;100103.97;;;9.81;88.88
37848;BME280;23688;33.130;-117.188;2022-12-24T07:12:35;100100.28;;;9.77;91.03
37848;BME280;23688;33.130;-117.188;2022-12-24T07:15:01;100104.47;;;9.90;92.47
37848;BME280;23688;33.130;-117.188;2022-12-24T07:17:28;100108.91;;;9.93;92.13
37848;BME280;23688;33.130;-117.188;2022-12-24T07:19:54;100116.44;;;9.88;91.60
37848;BME280;23688;33.130;-117.188;2022-12-24T07:22:21;100120.56;;;9.84;91.00
37848;BME280;23688;33.130;-117.188;2022-12-24T07:24:47;100110.19;;;9.84;90.04
37848;BME280;23688;33.130;-117.188;2022-12-24T07:27:13;100106.44;;;9.79;90.09
37848;BME280;23688;33.130;-117.188;2022-12-24T07:29:40;100114.63;;;9.87;90.90
37848;BME280;23688;33.130;-117.188;2022-12-24T07:32:07;100109.41;;;9.85;91.52
37848;BME280;23688;33.130;-117.188;2022-12-24T07:34:34;100097.22;;;9.84;91.71
37848;BME280;23688;33.130;-117.188;2022-12-24T07:37:00;100106.06;;;9.88;91.58
37848;BME280;23688;33.130;-117.188;2022-12-24T07:39:27;100102.16;;;9.80;91.69
37848;BME280;23688;33.130;-117.188;2022-12-24T07:41:53;100108.00;;;9.76;90.85
37848;BME280;23688;33.130;-117.188;2022-12-24T07:44:19;100119.00;;;9.72;89.81
37848;BME280;23688;33.130;-117.188;2022-12-24T07:46:46;100129.38;;;9.72;89.45
37848;BME280;23688;33.130;-117.188;2022-12-24T07:49:12;100120.00;;;9.74;90.79
37848;BME280;23688;33.130;-117.188;2022-12-24T07:51:38;100116.31;;;9.70;91.14
37848;BME280;23688;33.130;-117.188;2022-12-24T07:54:06;100120.88;;;9.74;90.62
37848;BME280;23688;33.130;-117.188;2022-12-24T07:56:33;100122.66;;;9.75;90.78
37848;BME280;23688;33.130;-117.188;2022-12-24T07:58:59;100110.25;;;9.70;90.39
37848;BME280;23688;33.130;-117.188;2022-12-24T08:01:26;100114.72;;;9.72;90.02
37848;BME280;23688;33.130;-117.188;2022-12-24T08:03:52;100106.69;;;9.68;89.29
37848;BME280;23688;33.130;-117.188;2022-12-24T08:06:21;100097.09;;;9.50;88.91
37848;BME280;23688;33.130;-117.188;2022-12-24T08:08:47;100124.72;;;9.50;88.02
37848;BME280;23688;33.130;-117.188;2022-12-24T08:11:15;100129.53;;;9.43;88.34
37848;BME280;23688;33.130;-117.188;2022-12-24T08:13:41;100137.25;;;9.42;88.55
37848;BME280;23688;33.130;-117.188;2022-12-24T08:16:09;100120.88;;;9.43;88.32
37848;BME280;23688;33.130;-117.188;2022-12-24T08:18:35;100125.91;;;9.40;88.81
37848;BME280;23688;33.130;-117.188;2022-12-24T08:21:05;100129.31;;;9.39;89.17
37848;BME280;23688;33.130;-117.188;2022-12-24T08:23:31;100118.03;;;9.38;89.23
37848;BME280;23688;33.130;-117.188;2022-12-24T08:25:58;100118.84;;;9.37;89.78
37848;BME280;23688;33.130;-117.188;2022-12-24T08:28:24;100118.50;;;9.31;89.61
37848;BME280;23688;33.130;-117.188;2022-12-24T08:30:50;100119.47;;;9.33;88.99
37848;BME280;23688;33.130;-117.188;2022-12-24T08:33:17;100110.22;;;9.22;89.12
37848;BME280;23688;33.130;-117.188;2022-12-24T08:35:50;100123.44;;;9.27;89.39
37848;BME280;23688;33.130;-117.188;2022-12-24T08:38:17;100134.13;;;9.33;91.21
37848;BME280;23688;33.130;-117.188;2022-12-24T08:40:44;100128.13;;;9.34;92.05
37848;BME280;23688;33.130;-117.188;2022-12-24T08:43:15;100132.06;;;9.42;92.67
37848;BME280;23688;33.130;-117.188;2022-12-24T08:45:42;100126.16;;;9.45;91.97
37848;BME280;23688;33.130;-117.188;2022-12-24T08:48:09;100111.75;;;9.50;91.23
37848;BME280;23688;33.130;-117.188;2022-12-24T08:50:40;100116.31;;;9.54;91.50
37848;BME280;23688;33.130;-117.188;2022-12-24T08:53:07;100112.78;;;9.53;91.59
37848;BME280;23688;33.130;-117.188;2022-12-24T08:55:34;100123.41;;;9.58;91.64
37848;BME280;23688;33.130;-117.188;2022-12-24T08:58:00;100124.34;;;9.58;91.63
37848;BME280;23688;33.130;-117.188;2022-12-24T09:00:27;100115.59;;;9.56;90.67
37848;BME280;23688;33.130;-117.188;2022-12-24T09:02:53;100101.03;;;9.43;89.52
37848;BME280;23688;33.130;-117.188;2022-12-24T09:05:19;100128.66;;;9.43;89.12
37848;BME280;23688;33.130;-117.188;2022-12-24T09:07:45;100129.38;;;9.40;89.31
37848;BME280;23688;33.130;-117.188;2022-12-24T09:10:12;100114.47;;;9.36;89.65
37848;BME280;23688;33.130;-117.188;2022-12-24T09:12:38;100116.00;;;9.33;89.50
37848;BME280;23688;33.130;-117.188;2022-12-24T09:15:05;100122.72;;;9.29;89.52
37848;BME280;23688;33.130;-117.188;2022-12-24T09:17:34;100115.72;;;9.28;89.53
37848;BME280;23688;33.130;-117.188;2022-12-24T09:20:02;100122.78;;;9.31;89.18
37848;BME280;23688;33.130;-117.188;2022-12-24T09:22:28;100126.81;;;9.26;88.82
37848;BME280;23688;33.130;-117.188;2022-12-24T09:24:54;100126.56;;;9.21;88.68
37848;BME280;23688;33.130;-117.188;2022-12-24T09:27:21;100112.91;;;9.09;89.09
37848;BME280;23688;33.130;-117.188;2022-12-24T09:29:47;100129.44;;;9.11;89.35
37848;BME280;23688;33.130;-117.188;2022-12-24T09:32:14;100122.94;;;9.03;88.53
37848;BME280;23688;33.130;-117.188;2022-12-24T09:34:40;100114.53;;;8.92;88.72
37848;BME280;23688;33.130;-117.188;2022-12-24T09:37:06;100107.47;;;8.89;89.65
37848;BME280;23688;33.130;-117.188;2022-12-24T09:39:33;100107.63;;;8.92;90.80
37848;BME280;23688;33.130;-117.188;2022-12-24T09:47:30;100118.63;;;9.18;92.57
37848;BME280;23688;33.130;-117.188;2022-12-24T09:50:02;100098.72;;;9.17;92.52
37848;BME280;23688;33.130;-117.188;2022-12-24T09:52:34;100093.84;;;9.23;92.91
37848;BME280;23688;33.130;-117.188;2022-12-24T09:55:11;100109.47;;;9.39;92.54
37848;BME280;23688;33.130;-117.188;2022-12-24T09:57:40;100093.91;;;9.39;91.28
37848;BME280;23688;33.130;-117.188;2022-12-24T10:00:28;100107.56;;;9.52;90.28
37848;BME280;23688;33.130;-117.188;2022-12-24T10:02:55;100100.97;;;9.42;89.51
37848;BME280;23688;33.130;-117.188;2022-12-24T10:05:42;100116.56;;;9.43;88.81
37848;BME280;23688;33.130;-117.188;2022-12-24T10:08:24;100114.38;;;9.35;87.59
37848;BME280;23688;33.130;-117.188;2022-12-24T10:10:59;100111.53;;;9.30;87.69
37848;BME280;23688;33.130;-117.188;2022-12-24T10:16:02;100118.00;;;9.22;88.23
37848;BME280;23688;33.130;-117.188;2022-12-24T10:18:58;100107.38;;;9.17;88.29
37848;BME280;23688;33.130;-117.188;2022-12-24T10:21:42;100103.38;;;9.08;88.55
37848;BME280;23688;33.130;-117.188;2022-12-24T10:24:25;100101.66;;;9.08;88.77
37848;BME280;23688;33.130;-117.188;2022-12-24T10:27:01;100102.38;;;9.06;88.61
37848;BME280;23688;33.130;-117.188;2022-12-24T10:29:56;100106.28;;;9.14;88.85
37848;BME280;23688;33.130;-117.188;2022-12-24T10:32:35;100110.69;;;9.15;88.75
37848;BME280;23688;33.130;-117.188;2022-12-24T10:35:19;100105.75;;;9.19;88.12
37848;BME280;23688;33.130;-117.188;2022-12-24T10:37:50;100086.94;;;9.07;88.30
37848;BME280;23688;33.130;-117.188;2022-12-24T10:40:42;100097.78;;;9.16;88.33
37848;BME280;23688;33.130;-117.188;2022-12-24T10:43:21;100096.75;;;9.13;88.18
37848;BME280;23688;33.130;-117.188;2022-12-24T10:45:52;100101.91;;;9.13;88.12
37848;BME280;23688;33.130;-117.188;2022-12-24T10:48:36;100101.09;;;9.14;88.05
37848;BME280;23688;33.130;-117.188;2022-12-24T10:51:10;100108.09;;;9.15;87.73
37848;BME280;23688;33.130;-117.188;2022-12-24T10:53:55;100097.53;;;9.12;88.40
37848;BME280;23688;33.130;-117.188;2022-12-24T10:56:22;100107.06;;;9.28;88.21
37848;BME280;23688;33.130;-117.188;2022-12-24T10:58:53;100096.72;;;9.28;86.91
37848;BME280;23688;33.130;-117.188;2022-12-24T11:01:45;100104.75;;;9.32;86.64
37848;BME280;23688;33.130;-117.188;2022-12-24T11:04:19;100086.91;;;9.22;86.36
37848;BME280;23688;33.130;-117.188;2022-12-24T11:07:04;100102.00;;;9.29;85.92
37848;BME280;23688;33.130;-117.188;2022-12-24T11:09:38;100097.69;;;9.30;85.61
37848;BME280;23688;33.130;-117.188;2022-12-24T11:12:32;100092.41;;;9.28;85.12
37848;BME280;23688;33.130;-117.188;2022-12-24T11:15:02;100095.88;;;9.29;85.00
37848;BME280;23688;33.130;-117.188;2022-12-24T11:17:29;100093.41;;;9.30;84.96
37848;BME280;23688;33.130;-117.188;2022-12-24T11:19:56;100078.22;;;9.21;84.74
37848;BME280;23688;33.130;-117.188;2022-12-24T11:22:30;100091.25;;;9.23;84.71
37848;BME280;23688;33.130;-117.188;2022-12-24T11:25:19;100082.34;;;9.18;84.77
37848;BME280;23688;33.130;-117.188;2022-12-24T11:27:48;100067.09;;;9.08;84.21
37848;BME280;23688;33.130;-117.188;2022-12-24T11:32:47;100074.69;;;9.05;84.05
37848;BME280;23688;33.130;-117.188;2022-12-24T11:35:20;100083.69;;;9.11;84.02
37848;BME280;23688;33.130;-117.188;2022-12-24T11:38:30;100076.63;;;9.09;83.90
37848;BME280;23688;33.130;-117.188;2022-12-24T11:40:44;100084.25;;;9.06;83.72
37848;BME280;23688;33.130;-117.188;2022-12-24T11:43:17;100083.25;;;9.04;83.93
37848;BME280;23688;33.130;-117.188;2022-12-24T11:45:53;100082.09;;;8.98;84.09
37848;BME280;23688;33.130;-117.188;2022-12-24T11:48:28;100084.28;;;8.91;84.55
37848;BME280;23688;33.130;-117.188;2022-12-24T11:51:03;100088.56;;;8.90;84.76
37848;BME280;23688;33.130;-117.188;2022-12-24T11:53:55;100082.41;;;8.88;84.75
37848;BME280;23688;33.130;-117.188;2022-12-24T11:56:47;100087.41;;;8.85;84.86
37848;BME280;23688;33.130;-117.188;2022-12-24T12:02:25;100086.22;;;8.80;85.27
37848;BME280;23688;33.130;-117.188;2022-12-24T12:04:47;100098.81;;;8.89;84.92
37848;BME280;23688;33.130;-117.188;2022-12-24T12:07:24;100091.59;;;8.83;85.09
37848;BME280;23688;33.130;-117.188;2022-12-24T12:09:58;100098.72;;;8.87;84.90
37848;BME280;23688;33.130;-117.188;2022-12-24T12:12:31;100104.88;;;8.89;85.02
37848;BME280;23688;33.130;-117.188;2022-12-24T12:15:26;100099.69;;;8.89;84.89
37848;BME280;23688;33.130;-117.188;2022-12-24T12:18:06;100106.50;;;8.87;84.86
37848;BME280;23688;33.130;-117.188;2022-12-24T12:20:51;100095.78;;;8.81;85.62
37848;BME280;23688;33.130;-117.188;2022-12-24T12:23:34;100110.72;;;8.85;85.83
37848;BME280;23688;33.130;-117.188;2022-12-24T12:28:56;100119.53;;;8.74;85.99
37848;BME280;23688;33.130;-117.188;2022-12-24T12:31:38;100113.09;;;8.67;85.96
37848;BME280;23688;33.130;-117.188;2022-12-24T12:34:31;100121.41;;;8.62;85.58
37848;BME280;23688;33.130;-117.188;2022-12-24T12:39:30;100140.31;;;8.61;85.92
37848;BME280;23688;33.130;-117.188;2022-12-24T12:47:56;100150.03;;;8.50;85.59
37848;BME280;23688;33.130;-117.188;2022-12-24T12:59:07;100171.97;;;8.28;86.14
37848;BME280;23688;33.130;-117.188;2022-12-24T13:02:07;100168.13;;;8.22;86.42
37848;BME280;23688;33.130;-117.188;2022-12-24T13:04:51;100156.47;;;8.00;86.54
37848;BME280;23688;33.130;-117.188;2022-12-24T13:07:50;100169.78;;;8.06;87.51
37848;BME280;23688;33.130;-117.188;2022-12-24T13:16:35;100174.72;;;8.17;88.37
37848;BME280;23688;33.130;-117.188;2022-12-24T13:21:45;100192.50;;;8.25;88.01
37848;BME280;23688;33.130;-117.188;2022-12-24T13:24:22;100191.69;;;8.26;87.66
37848;BME280;23688;33.130;-117.188;2022-12-24T13:27:03;100195.97;;;8.26;87.41
37848;BME280;23688;33.130;-117.188;2022-12-24T13:32:35;100205.66;;;8.15;87.24
37848;BME280;23688;33.130;-117.188;2022-12-24T13:35:19;100204.84;;;8.16;85.98
37848;BME280;23688;33.130;-117.188;2022-12-24T13:37:49;100202.56;;;8.21;86.17
37848;BME280;23688;33.130;-117.188;2022-12-24T13:40:23;100209.50;;;8.22;86.35
37848;BME280;23688;33.130;-117.188;2022-12-24T13:53:04;100230.41;;;8.25;86.65
37848;BME280;23688;33.130;-117.188;2022-12-24T13:55:32;100229.13;;;8.18;86.51
37848;BME280;23688;33.130;-117.188;2022-12-24T13:58:01;100238.19;;;8.25;86.06
37848;BME280;23688;33.130;-117.188;2022-12-24T14:00:52;100247.88;;;8.29;85.61
37848;BME280;23688;33.130;-117.188;2022-12-24T14:03:32;100252.19;;;8.28;85.21
37848;BME280;23688;33.130;-117.188;2022-12-24T14:06:11;100247.88;;;8.29;84.89